Main page
METAR-TAF:

METAR-TAF

Airports :

Jizan Regional Airport

Jizan, Saudi Arabia

latitude: 16-54N, longitude: 042-35E, elevation: 6 m

Current weather observation

The report was made 22 minutes ago, at 10:00 UTC
Wind 8 kt from the South/Southwest
Temperature 32°C
Humidity 56%
Pressure 1010 hPa
Visibility 10 km or more
no clouds below 1500 m and no cumulonimbus

METAR: OEGN 291000Z 20008KT CAVOK 32/22 Q1010 NOSIG

Time: 13:22 (10:22 UTC)

Forecast

The report was made 11 hours and 22 minutes ago, at 23:00 UTC
Forecast valid from 29 at 00 UTC to 30 at 06 UTC
Wind 6 kt from the East/Southeast
Visibility: 7000 m
Few clouds at a height of 3000 ft
Becoming
from 29 at 08 UTC to 29 at 10 UTC
Wind 10 kt from the South/Southwest
Visibility 10 km or more
Scattered clouds at a height of 3000 ft
Becoming
from 29 at 18 UTC to 29 at 20 UTC
Wind 8 kt from the Southeast
Visibility: 7000 m
Few clouds at a height of 3000 ft

TAF: OEGN 282300Z 2900/3006 12006KT 7000 FEW030 BECMG 2908/2910 20010KT 9999 SCT030 BECMG 2918/2920 13008KT 7000 FEW030

Weather observations and forecasts of more than 4000 airports (METAR and TAF reports).

The available stations are represented by yellow and red dots on the map.

Hover mouse over dot to see the name of the station.

Then click to see weather observations and forecasts.

To change the map : click on the green buttons with a black cross to zoom in, on the green button with a dash to zoom out, or on the green arrows for adjacent maps.


METAR-TAF: